<?xml version='1.0' encoding='UTF-8'?><gpx version="1.1" creator="JPX - https://github.com/jenetics/jpx" xmlns="http://www.topografix.com/GPX/1/1"><trk><trkseg><trkpt lat="45.6771637" lon="11.6895792"><ele>59.0</ele><time>2026-04-04T12:35:47.291Z</time></trkpt><trkpt lat="45.6764015" lon="11.6857476"><ele>58.0</ele><time>2026-04-04T12:36:06.294Z</time></trkpt><trkpt lat="45.6744049" lon="11.6851619"><ele>58.0</ele><time>2026-04-04T12:41:48.281Z</time></trkpt><trkpt lat="45.6723385" lon="11.6855405"><ele>58.0</ele><time>2026-04-04T12:42:10.29Z</time></trkpt><trkpt lat="45.6703014" lon="11.6859294"><ele>57.0</ele><time>2026-04-04T12:42:53.275Z</time></trkpt><trkpt lat="45.6690902" lon="11.6867789"><ele>53.0</ele><time>2026-04-04T12:43:17.283Z</time></trkpt><trkpt lat="45.668" lon="11.6879908"><ele>56.0</ele><time>2026-04-04T12:43:49.277Z</time></trkpt><trkpt lat="45.6668187" lon="11.6889867"><ele>62.0</ele><time>2026-04-04T12:44:16.284Z</time></trkpt><trkpt lat="45.6713908" lon="11.6827964"><ele>64.0</ele><time>2026-04-04T14:44:55.263Z</time></trkpt><trkpt lat="45.6782738" lon="11.6820233"><ele>64.0</ele><time>2026-04-04T14:46:01.272Z</time></trkpt><trkpt lat="45.6821368" lon="11.6777533"><ele>66.0</ele><time>2026-04-04T14:46:47.268Z</time></trkpt><trkpt lat="45.6843718" lon="11.6686358"><ele>68.0</ele><time>2026-04-04T14:47:49.263Z</time></trkpt><trkpt lat="45.6896876" lon="11.6708137"><ele>72.0</ele><time>2026-04-04T14:48:27.273Z</time></trkpt><trkpt lat="45.6959545" lon="11.6700436"><ele>74.0</ele><time>2026-04-04T14:49:02.267Z</time></trkpt><trkpt lat="45.702022" lon="11.6720303"><ele>77.0</ele><time>2026-04-04T14:49:40.265Z</time></trkpt><trkpt lat="45.7081173" lon="11.6744734"><ele>82.0</ele><time>2026-04-04T14:50:21.26Z</time></trkpt><trkpt lat="45.7250875" lon="11.6794509"><ele>82.0</ele><time>2026-04-04T14:53:35.262Z</time></trkpt></trkseg></trk></gpx>